sensor_id;sensor_type;location;lat;lon;timestamp;pressure;altitude;pressure_sealevel;temperature;humidity
7930;BME280;4010;42.698;23.124;2022-12-29T00:02:02;118349.16;;;-140.64;100.00
7930;BME280;4010;42.698;23.124;2022-12-29T00:04:28;118349.16;;;-140.64;100.00
7930;BME280;4010;42.698;23.124;2022-12-29T00:06:56;118349.16;;;-140.64;100.00
7930;BME280;4010;42.698;23.124;2022-12-29T00:09:24;118349.16;;;-140.64;100.00
7930;BME280;4010;42.698;23.124;2022-12-29T00:11:51;118349.16;;;-140.64;100.00
7930;BME280;4010;42.698;23.124;2022-12-29T00:14:19;118349.16;;;-140.64;100.00
7930;BME280;4010;42.698;23.124;2022-12-29T00:17:15;118349.16;;;-140.64;100.00
7930;BME280;4010;42.698;23.124;2022-12-29T00:19:42;118349.16;;;-140.64;100.00
7930;BME280;4010;42.698;23.124;2022-12-29T00:22:27;118349.16;;;-140.64;100.00
7930;BME280;4010;42.698;23.124;2022-12-29T00:25:12;118349.16;;;-140.64;100.00
7930;BME280;4010;42.698;23.124;2022-12-29T00:27:57;118349.16;;;-140.64;100.00
7930;BME280;4010;42.698;23.124;2022-12-29T00:30:43;118349.16;;;-140.64;100.00
7930;BME280;4010;42.698;23.124;2022-12-29T00:33:29;118349.16;;;-140.64;100.00
7930;BME280;4010;42.698;23.124;2022-12-29T00:36:16;118349.16;;;-140.64;100.00
7930;BME280;4010;42.698;23.124;2022-12-29T00:38:48;118349.16;;;-140.64;100.00
7930;BME280;4010;42.698;23.124;2022-12-29T00:41:33;118349.16;;;-140.64;100.00
7930;BME280;4010;42.698;23.124;2022-12-29T00:44:17;118349.16;;;-140.64;100.00
7930;BME280;4010;42.698;23.124;2022-12-29T00:46:44;118349.16;;;-140.64;100.00
7930;BME280;4010;42.698;23.124;2022-12-29T00:49:12;118349.16;;;-140.64;100.00
7930;BME280;4010;42.698;23.124;2022-12-29T00:51:59;118349.16;;;-140.64;100.00
7930;BME280;4010;42.698;23.124;2022-12-29T00:54:28;118349.16;;;-140.64;100.00
7930;BME280;4010;42.698;23.124;2022-12-29T00:56:56;118349.16;;;-140.64;100.00
7930;BME280;4010;42.698;23.124;2022-12-29T00:59:23;118349.16;;;-140.64;100.00
7930;BME280;4010;42.698;23.124;2022-12-29T01:01:50;118349.16;;;-140.64;100.00
7930;BME280;4010;42.698;23.124;2022-12-29T01:04:18;118349.16;;;-140.64;100.00
7930;BME280;4010;42.698;23.124;2022-12-29T01:06:45;118349.16;;;-140.64;100.00
7930;BME280;4010;42.698;23.124;2022-12-29T01:09:12;118349.16;;;-140.64;100.00
7930;BME280;4010;42.698;23.124;2022-12-29T01:11:58;118349.16;;;-140.64;100.00
7930;BME280;4010;42.698;23.124;2022-12-29T01:14:25;118349.16;;;-140.64;100.00
7930;BME280;4010;42.698;23.124;2022-12-29T01:16:53;118349.16;;;-140.64;100.00
7930;BME280;4010;42.698;23.124;2022-12-29T01:19:20;118349.16;;;-140.64;100.00
7930;BME280;4010;42.698;23.124;2022-12-29T01:21:47;118349.16;;;-140.64;100.00
7930;BME280;4010;42.698;23.124;2022-12-29T01:24:15;118349.16;;;-140.64;100.00
7930;BME280;4010;42.698;23.124;2022-12-29T01:26:42;118349.16;;;-140.64;100.00
7930;BME280;4010;42.698;23.124;2022-12-29T01:29:10;118349.16;;;-140.64;100.00
7930;BME280;4010;42.698;23.124;2022-12-29T01:31:37;118349.16;;;-140.64;100.00
7930;BME280;4010;42.698;23.124;2022-12-29T01:34:04;118349.16;;;-140.64;100.00
7930;BME280;4010;42.698;23.124;2022-12-29T01:36:31;118349.16;;;-140.64;100.00
7930;BME280;4010;42.698;23.124;2022-12-29T01:38:57;118349.16;;;-140.64;100.00
7930;BME280;4010;42.698;23.124;2022-12-29T01:41:24;118349.16;;;-140.64;100.00
7930;BME280;4010;42.698;23.124;2022-12-29T01:43:53;118349.16;;;-140.64;100.00
7930;BME280;4010;42.698;23.124;2022-12-29T01:46:26;118349.16;;;-140.64;100.00
7930;BME280;4010;42.698;23.124;2022-12-29T01:48:59;118349.16;;;-140.64;100.00
7930;BME280;4010;42.698;23.124;2022-12-29T01:51:28;118349.16;;;-140.64;100.00
7930;BME280;4010;42.698;23.124;2022-12-29T01:53:58;118349.16;;;-140.64;100.00
7930;BME280;4010;42.698;23.124;2022-12-29T01:56:27;118349.16;;;-140.64;100.00
7930;BME280;4010;42.698;23.124;2022-12-29T01:58:56;118349.16;;;-140.64;100.00
7930;BME280;4010;42.698;23.124;2022-12-29T02:01:28;118349.16;;;-140.64;100.00
7930;BME280;4010;42.698;23.124;2022-12-29T02:03:55;118349.16;;;-140.64;100.00
7930;BME280;4010;42.698;23.124;2022-12-29T02:06:23;118349.16;;;-140.64;100.00
7930;BME280;4010;42.698;23.124;2022-12-29T02:08:53;118349.16;;;-140.64;100.00
7930;BME280;4010;42.698;23.124;2022-12-29T02:11:23;118349.16;;;-140.64;100.00
7930;BME280;4010;42.698;23.124;2022-12-29T02:13:51;118349.16;;;-140.64;100.00
7930;BME280;4010;42.698;23.124;2022-12-29T02:16:34;118349.16;;;-140.64;100.00
7930;BME280;4010;42.698;23.124;2022-12-29T02:19:25;118349.16;;;-140.64;100.00
7930;BME280;4010;42.698;23.124;2022-12-29T02:22:08;118349.16;;;-140.64;100.00
7930;BME280;4010;42.698;23.124;2022-12-29T02:27:57;118349.16;;;-140.64;100.00
7930;BME280;4010;42.698;23.124;2022-12-29T02:30:49;118349.16;;;-140.64;100.00
7930;BME280;4010;42.698;23.124;2022-12-29T02:33:28;118349.16;;;-140.64;100.00
7930;BME280;4010;42.698;23.124;2022-12-29T02:36:06;118349.16;;;-140.64;100.00
7930;BME280;4010;42.698;23.124;2022-12-29T02:38:52;118349.16;;;-140.64;100.00
7930;BME280;4010;42.698;23.124;2022-12-29T02:41:30;118349.16;;;-140.64;100.00
7930;BME280;4010;42.698;23.124;2022-12-29T02:44:03;118349.16;;;-140.64;100.00
7930;BME280;4010;42.698;23.124;2022-12-29T02:46:36;118349.16;;;-140.64;100.00
7930;BME280;4010;42.698;23.124;2022-12-29T02:49:09;118349.16;;;-140.64;100.00
7930;BME280;4010;42.698;23.124;2022-12-29T02:51:41;118349.16;;;-140.64;100.00
7930;BME280;4010;42.698;23.124;2022-12-29T02:54:10;118349.16;;;-140.64;100.00
7930;BME280;4010;42.698;23.124;2022-12-29T02:57:10;118349.16;;;-140.64;100.00
7930;BME280;4010;42.698;23.124;2022-12-29T02:59:37;118349.16;;;-140.64;100.00
7930;BME280;4010;42.698;23.124;2022-12-29T03:02:31;118349.16;;;-140.64;100.00
7930;BME280;4010;42.698;23.124;2022-12-29T03:05:17;118349.16;;;-140.64;100.00
7930;BME280;4010;42.698;23.124;2022-12-29T03:07:55;118349.16;;;-140.64;100.00
7930;BME280;4010;42.698;23.124;2022-12-29T03:10:32;118349.16;;;-140.64;100.00
7930;BME280;4010;42.698;23.124;2022-12-29T03:13:04;118349.16;;;-140.64;100.00
7930;BME280;4010;42.698;23.124;2022-12-29T03:15:55;118349.16;;;-140.64;100.00
7930;BME280;4010;42.698;23.124;2022-12-29T03:18:37;118349.16;;;-140.64;100.00
7930;BME280;4010;42.698;23.124;2022-12-29T03:21:09;118349.16;;;-140.64;100.00
7930;BME280;4010;42.698;23.124;2022-12-29T03:23:39;118349.16;;;-140.64;100.00
7930;BME280;4010;42.698;23.124;2022-12-29T03:26:10;118349.16;;;-140.64;100.00
7930;BME280;4010;42.698;23.124;2022-12-29T03:28:40;118349.16;;;-140.64;100.00
7930;BME280;4010;42.698;23.124;2022-12-29T03:31:10;118349.16;;;-140.64;100.00
7930;BME280;4010;42.698;23.124;2022-12-29T03:33:40;118349.16;;;-140.64;100.00
7930;BME280;4010;42.698;23.124;2022-12-29T03:36:11;118349.16;;;-140.64;100.00
7930;BME280;4010;42.698;23.124;2022-12-29T03:38:44;118349.16;;;-140.64;100.00
7930;BME280;4010;42.698;23.124;2022-12-29T03:41:15;118349.16;;;-140.64;100.00
7930;BME280;4010;42.698;23.124;2022-12-29T03:43:43;118349.16;;;-140.64;100.00
7930;BME280;4010;42.698;23.124;2022-12-29T03:46:10;118349.16;;;-140.64;100.00
7930;BME280;4010;42.698;23.124;2022-12-29T03:48:38;118349.16;;;-140.64;100.00
7930;BME280;4010;42.698;23.124;2022-12-29T03:51:05;118349.16;;;-140.64;100.00
7930;BME280;4010;42.698;23.124;2022-12-29T03:53:31;118349.16;;;-140.64;100.00
7930;BME280;4010;42.698;23.124;2022-12-29T03:55:58;118349.16;;;-140.64;100.00
7930;BME280;4010;42.698;23.124;2022-12-29T03:58:25;118349.16;;;-140.64;100.00
7930;BME280;4010;42.698;23.124;2022-12-29T04:00:51;118349.16;;;-140.64;100.00
7930;BME280;4010;42.698;23.124;2022-12-29T04:03:18;118349.16;;;-140.64;100.00
7930;BME280;4010;42.698;23.124;2022-12-29T04:05:46;118349.16;;;-140.64;100.00
7930;BME280;4010;42.698;23.124;2022-12-29T04:08:13;118349.16;;;-140.64;100.00
7930;BME280;4010;42.698;23.124;2022-12-29T04:10:40;118349.16;;;-140.64;100.00
7930;BME280;4010;42.698;23.124;2022-12-29T04:13:07;118349.16;;;-140.64;100.00
7930;BME280;4010;42.698;23.124;2022-12-29T04:15:33;118349.16;;;-140.64;100.00
7930;BME280;4010;42.698;23.124;2022-12-29T04:18:00;118349.16;;;-140.64;100.00
7930;BME280;4010;42.698;23.124;2022-12-29T04:20:26;118349.16;;;-140.64;100.00
7930;BME280;4010;42.698;23.124;2022-12-29T04:23:12;118349.16;;;-140.64;100.00
7930;BME280;4010;42.698;23.124;2022-12-29T04:25:38;118349.16;;;-140.64;100.00
7930;BME280;4010;42.698;23.124;2022-12-29T04:28:05;118349.16;;;-140.64;100.00
7930;BME280;4010;42.698;23.124;2022-12-29T04:30:33;118349.16;;;-140.64;100.00
7930;BME280;4010;42.698;23.124;2022-12-29T04:32:59;118349.16;;;-140.64;100.00
7930;BME280;4010;42.698;23.124;2022-12-29T04:35:26;118349.16;;;-140.64;100.00
7930;BME280;4010;42.698;23.124;2022-12-29T04:37:53;118349.16;;;-140.64;100.00
7930;BME280;4010;42.698;23.124;2022-12-29T04:40:21;118349.16;;;-140.64;100.00
7930;BME280;4010;42.698;23.124;2022-12-29T04:42:49;118349.16;;;-140.64;100.00
7930;BME280;4010;42.698;23.124;2022-12-29T04:45:16;118349.16;;;-140.64;100.00
7930;BME280;4010;42.698;23.124;2022-12-29T04:47:43;118349.16;;;-140.64;100.00
7930;BME280;4010;42.698;23.124;2022-12-29T04:50:10;118349.16;;;-140.64;100.00
7930;BME280;4010;42.698;23.124;2022-12-29T04:52:36;118349.16;;;-140.64;100.00
7930;BME280;4010;42.698;23.124;2022-12-29T04:55:05;118349.16;;;-140.64;100.00
7930;BME280;4010;42.698;23.124;2022-12-29T04:57:33;118349.16;;;-140.64;100.00
7930;BME280;4010;42.698;23.124;2022-12-29T05:00:00;118349.16;;;-140.64;100.00
7930;BME280;4010;42.698;23.124;2022-12-29T05:02:28;118349.16;;;-140.64;100.00
7930;BME280;4010;42.698;23.124;2022-12-29T05:04:54;118349.16;;;-140.64;100.00
7930;BME280;4010;42.698;23.124;2022-12-29T05:07:21;118349.16;;;-140.64;100.00
7930;BME280;4010;42.698;23.124;2022-12-29T05:09:48;118349.16;;;-140.64;100.00
7930;BME280;4010;42.698;23.124;2022-12-29T05:12:15;118349.16;;;-140.64;100.00
7930;BME280;4010;42.698;23.124;2022-12-29T05:14:43;118349.16;;;-140.64;100.00
7930;BME280;4010;42.698;23.124;2022-12-29T05:20:31;118349.16;;;-140.64;100.00
7930;BME280;4010;42.698;23.124;2022-12-29T05:22:58;118349.16;;;-140.64;100.00
7930;BME280;4010;42.698;23.124;2022-12-29T05:25:25;118349.16;;;-140.64;100.00
7930;BME280;4010;42.698;23.124;2022-12-29T05:27:51;118349.16;;;-140.64;100.00
7930;BME280;4010;42.698;23.124;2022-12-29T05:30:19;118349.16;;;-140.64;100.00
7930;BME280;4010;42.698;23.124;2022-12-29T05:32:46;118349.16;;;-140.64;100.00
7930;BME280;4010;42.698;23.124;2022-12-29T05:35:13;118349.16;;;-140.64;100.00
7930;BME280;4010;42.698;23.124;2022-12-29T05:37:39;118349.16;;;-140.64;100.00
7930;BME280;4010;42.698;23.124;2022-12-29T05:40:07;118349.16;;;-140.64;100.00
7930;BME280;4010;42.698;23.124;2022-12-29T05:42:34;118349.16;;;-140.64;100.00
7930;BME280;4010;42.698;23.124;2022-12-29T05:45:01;118349.16;;;-140.64;100.00
7930;BME280;4010;42.698;23.124;2022-12-29T05:47:29;118349.16;;;-140.64;100.00
7930;BME280;4010;42.698;23.124;2022-12-29T05:49:55;118349.16;;;-140.64;100.00
7930;BME280;4010;42.698;23.124;2022-12-29T05:52:44;118349.16;;;-140.64;100.00
7930;BME280;4010;42.698;23.124;2022-12-29T05:55:11;118349.16;;;-140.64;100.00
7930;BME280;4010;42.698;23.124;2022-12-29T05:57:38;118349.16;;;-140.64;100.00
7930;BME280;4010;42.698;23.124;2022-12-29T06:00:06;118349.16;;;-140.64;100.00
7930;BME280;4010;42.698;23.124;2022-12-29T06:02:34;118349.16;;;-140.64;100.00
7930;BME280;4010;42.698;23.124;2022-12-29T06:05:01;118349.16;;;-140.64;100.00
7930;BME280;4010;42.698;23.124;2022-12-29T06:07:28;118349.16;;;-140.64;100.00
7930;BME280;4010;42.698;23.124;2022-12-29T06:09:55;118349.16;;;-140.64;100.00
7930;BME280;4010;42.698;23.124;2022-12-29T06:12:22;118349.16;;;-140.64;100.00
7930;BME280;4010;42.698;23.124;2022-12-29T06:14:48;118349.16;;;-140.64;100.00
7930;BME280;4010;42.698;23.124;2022-12-29T06:17:15;118349.16;;;-140.64;100.00
7930;BME280;4010;42.698;23.124;2022-12-29T06:19:43;118349.16;;;-140.64;100.00
7930;BME280;4010;42.698;23.124;2022-12-29T06:22:10;118349.16;;;-140.64;100.00
7930;BME280;4010;42.698;23.124;2022-12-29T06:24:37;118349.16;;;-140.64;100.00
7930;BME280;4010;42.698;23.124;2022-12-29T06:27:04;118349.16;;;-140.64;100.00
7930;BME280;4010;42.698;23.124;2022-12-29T06:29:31;118349.16;;;-140.64;100.00
7930;BME280;4010;42.698;23.124;2022-12-29T06:31:57;118349.16;;;-140.64;100.00
7930;BME280;4010;42.698;23.124;2022-12-29T06:34:24;118349.16;;;-140.64;100.00
7930;BME280;4010;42.698;23.124;2022-12-29T06:36:52;118349.16;;;-140.64;100.00
7930;BME280;4010;42.698;23.124;2022-12-29T06:39:19;118349.16;;;-140.64;100.00
7930;BME280;4010;42.698;23.124;2022-12-29T06:41:46;118349.16;;;-140.64;100.00
7930;BME280;4010;42.698;23.124;2022-12-29T06:44:12;118349.16;;;-140.64;100.00
7930;BME280;4010;42.698;23.124;2022-12-29T06:46:39;118349.16;;;-140.64;100.00
7930;BME280;4010;42.698;23.124;2022-12-29T06:49:06;118349.16;;;-140.64;100.00
7930;BME280;4010;42.698;23.124;2022-12-29T06:51:32;118349.16;;;-140.64;100.00
7930;BME280;4010;42.698;23.124;2022-12-29T06:54:00;118349.16;;;-140.64;100.00
7930;BME280;4010;42.698;23.124;2022-12-29T06:56:28;118349.16;;;-140.64;100.00
7930;BME280;4010;42.698;23.124;2022-12-29T06:58:54;118349.16;;;-140.64;100.00
7930;BME280;4010;42.698;23.124;2022-12-29T07:01:21;118349.16;;;-140.64;100.00
7930;BME280;4010;42.698;23.124;2022-12-29T07:03:48;118349.16;;;-140.64;100.00
7930;BME280;4010;42.698;23.124;2022-12-29T07:06:14;118349.16;;;-140.64;100.00
7930;BME280;4010;42.698;23.124;2022-12-29T07:08:41;118349.16;;;-140.64;100.00
7930;BME280;4010;42.698;23.124;2022-12-29T07:11:09;118349.16;;;-140.64;100.00
7930;BME280;4010;42.698;23.124;2022-12-29T07:13:36;118349.16;;;-140.64;100.00
7930;BME280;4010;42.698;23.124;2022-12-29T07:16:05;118349.16;;;-140.64;100.00
7930;BME280;4010;42.698;23.124;2022-12-29T07:18:32;118349.16;;;-140.64;100.00
7930;BME280;4010;42.698;23.124;2022-12-29T07:20:59;118349.16;;;-140.64;100.00
7930;BME280;4010;42.698;23.124;2022-12-29T07:23:26;118349.16;;;-140.64;100.00
7930;BME280;4010;42.698;23.124;2022-12-29T07:25:59;118349.16;;;-140.64;100.00
7930;BME280;4010;42.698;23.124;2022-12-29T07:28:27;118349.16;;;-140.64;100.00
7930;BME280;4010;42.698;23.124;2022-12-29T07:30:54;118349.16;;;-140.64;100.00
7930;BME280;4010;42.698;23.124;2022-12-29T07:33:21;118349.16;;;-140.64;100.00
7930;BME280;4010;42.698;23.124;2022-12-29T07:35:47;118349.16;;;-140.64;100.00
7930;BME280;4010;42.698;23.124;2022-12-29T07:38:14;118349.16;;;-140.64;100.00
7930;BME280;4010;42.698;23.124;2022-12-29T07:40:42;118349.16;;;-140.64;100.00
7930;BME280;4010;42.698;23.124;2022-12-29T07:43:08;118349.16;;;-140.64;100.00
7930;BME280;4010;42.698;23.124;2022-12-29T07:45:37;118349.16;;;-140.64;100.00
7930;BME280;4010;42.698;23.124;2022-12-29T07:48:04;118349.16;;;-140.64;100.00
7930;BME280;4010;42.698;23.124;2022-12-29T07:50:33;118349.16;;;-140.64;100.00
7930;BME280;4010;42.698;23.124;2022-12-29T07:52:59;118349.16;;;-140.64;100.00
7930;BME280;4010;42.698;23.124;2022-12-29T07:55:26;118349.16;;;-140.64;100.00
7930;BME280;4010;42.698;23.124;2022-12-29T07:57:53;118349.16;;;-140.64;100.00
7930;BME280;4010;42.698;23.124;2022-12-29T08:00:20;118349.16;;;-140.64;100.00
7930;BME280;4010;42.698;23.124;2022-12-29T08:02:48;118349.16;;;-140.64;100.00
7930;BME280;4010;42.698;23.124;2022-12-29T08:05:15;118349.16;;;-140.64;100.00
7930;BME280;4010;42.698;23.124;2022-12-29T08:07:42;118349.16;;;-140.64;100.00
7930;BME280;4010;42.698;23.124;2022-12-29T08:10:09;118349.16;;;-140.64;100.00
7930;BME280;4010;42.698;23.124;2022-12-29T08:12:37;118349.16;;;-140.64;100.00
7930;BME280;4010;42.698;23.124;2022-12-29T08:15:05;118349.16;;;-140.64;100.00
7930;BME280;4010;42.698;23.124;2022-12-29T08:17:32;118349.16;;;-140.64;100.00
7930;BME280;4010;42.698;23.124;2022-12-29T08:20:00;118349.16;;;-140.64;98.80
7930;BME280;4010;42.698;23.124;2022-12-29T08:22:27;118349.16;;;-140.64;98.70
7930;BME280;4010;42.698;23.124;2022-12-29T08:24:54;118349.16;;;-140.64;98.94
7930;BME280;4010;42.698;23.124;2022-12-29T08:27:21;118349.16;;;-140.64;99.74
7930;BME280;4010;42.698;23.124;2022-12-29T08:29:48;118349.16;;;-140.64;99.92
7930;BME280;4010;42.698;23.124;2022-12-29T08:32:15;118349.16;;;-140.64;100.00
7930;BME280;4010;42.698;23.124;2022-12-29T08:34:42;118349.16;;;-140.64;99.24
7930;BME280;4010;42.698;23.124;2022-12-29T08:37:10;118349.16;;;-140.64;99.20
7930;BME280;4010;42.698;23.124;2022-12-29T08:39:36;118349.16;;;-140.64;99.47
7930;BME280;4010;42.698;23.124;2022-12-29T08:42:03;118349.16;;;-140.64;98.79
7930;BME280;4010;42.698;23.124;2022-12-29T08:44:30;118349.16;;;-140.64;97.49
7930;BME280;4010;42.698;23.124;2022-12-29T08:46:56;118349.16;;;-140.64;97.58
7930;BME280;4010;42.698;23.124;2022-12-29T08:49:23;118349.16;;;-140.64;96.40
7930;BME280;4010;42.698;23.124;2022-12-29T08:51:50;118349.16;;;-140.64;96.42
7930;BME280;4010;42.698;23.124;2022-12-29T08:54:18;118349.16;;;-140.64;96.75
7930;BME280;4010;42.698;23.124;2022-12-29T08:56:44;118349.16;;;-140.64;94.98
7930;BME280;4010;42.698;23.124;2022-12-29T08:59:11;118349.16;;;-140.64;95.24
7930;BME280;4010;42.698;23.124;2022-12-29T09:01:38;118349.16;;;-140.64;94.56
7930;BME280;4010;42.698;23.124;2022-12-29T09:04:05;118349.16;;;-140.64;95.22
7930;BME280;4010;42.698;23.124;2022-12-29T09:06:32;118349.16;;;-140.64;94.64
7930;BME280;4010;42.698;23.124;2022-12-29T09:08:59;118349.16;;;-140.64;93.35
7930;BME280;4010;42.698;23.124;2022-12-29T09:11:27;118349.16;;;-140.64;93.32
7930;BME280;4010;42.698;23.124;2022-12-29T09:13:53;118349.16;;;-140.64;92.95
7930;BME280;4010;42.698;23.124;2022-12-29T09:16:22;118349.16;;;-140.64;92.21
7930;BME280;4010;42.698;23.124;2022-12-29T09:18:49;118349.16;;;-140.64;91.92
7930;BME280;4010;42.698;23.124;2022-12-29T09:21:16;118349.16;;;-140.64;91.06
7930;BME280;4010;42.698;23.124;2022-12-29T09:23:42;118349.16;;;-140.64;89.76
7930;BME280;4010;42.698;23.124;2022-12-29T09:26:09;118349.16;;;-140.64;89.83
7930;BME280;4010;42.698;23.124;2022-12-29T09:28:37;118349.16;;;-140.64;89.97
7930;BME280;4010;42.698;23.124;2022-12-29T09:31:04;118349.16;;;-140.64;88.77
7930;BME280;4010;42.698;23.124;2022-12-29T09:33:31;118349.16;;;-140.64;87.87
7930;BME280;4010;42.698;23.124;2022-12-29T09:35:59;118349.16;;;-140.64;87.08
7930;BME280;4010;42.698;23.124;2022-12-29T09:38:26;118349.16;;;-140.64;87.12
7930;BME280;4010;42.698;23.124;2022-12-29T09:40:56;118349.16;;;-140.64;87.79
7930;BME280;4010;42.698;23.124;2022-12-29T09:46:27;118349.16;;;-140.64;89.36
7930;BME280;4010;42.698;23.124;2022-12-29T09:49:08;118349.16;;;-140.64;86.66
7930;BME280;4010;42.698;23.124;2022-12-29T09:51:41;118349.16;;;-140.64;86.73
7930;BME280;4010;42.698;23.124;2022-12-29T09:54:24;118349.16;;;-140.64;86.38
7930;BME280;4010;42.698;23.124;2022-12-29T09:56:53;118349.16;;;-140.64;86.66
7930;BME280;4010;42.698;23.124;2022-12-29T09:59:21;118349.16;;;-140.64;88.38
7930;BME280;4010;42.698;23.124;2022-12-29T10:01:56;118349.16;;;-140.64;85.97
7930;BME280;4010;42.698;23.124;2022-12-29T10:04:26;118349.16;;;-140.64;86.61
7930;BME280;4010;42.698;23.124;2022-12-29T10:06:56;118349.16;;;-140.64;87.30
7930;BME280;4010;42.698;23.124;2022-12-29T10:09:30;118349.16;;;-140.64;87.93
7930;BME280;4010;42.698;23.124;2022-12-29T10:12:11;118349.16;;;-140.64;86.74
7930;BME280;4010;42.698;23.124;2022-12-29T10:14:58;118349.16;;;-140.64;85.46
7930;BME280;4010;42.698;23.124;2022-12-29T10:17:35;118349.16;;;-140.64;85.77
7930;BME280;4010;42.698;23.124;2022-12-29T10:20:23;118349.16;;;-140.64;85.28
7930;BME280;4010;42.698;23.124;2022-12-29T10:23:10;118349.16;;;-140.64;85.04
7930;BME280;4010;42.698;23.124;2022-12-29T10:25:43;118349.16;;;-140.64;85.67
7930;BME280;4010;42.698;23.124;2022-12-29T10:28:17;118349.16;;;-140.64;86.12
7930;BME280;4010;42.698;23.124;2022-12-29T10:30:47;118349.16;;;-140.64;86.15
7930;BME280;4010;42.698;23.124;2022-12-29T10:33:19;118349.16;;;-140.64;85.98
7930;BME280;4010;42.698;23.124;2022-12-29T10:35:47;118349.16;;;-140.64;85.07
7930;BME280;4010;42.698;23.124;2022-12-29T10:38:22;118349.16;;;-140.64;85.65
7930;BME280;4010;42.698;23.124;2022-12-29T10:40:54;118349.16;;;-140.64;84.72
7930;BME280;4010;42.698;23.124;2022-12-29T10:43:26;118349.16;;;-140.64;83.99
7930;BME280;4010;42.698;23.124;2022-12-29T10:45:54;118349.16;;;-140.64;83.82
7930;BME280;4010;42.698;23.124;2022-12-29T10:48:26;118349.16;;;-140.64;84.39
7930;BME280;4010;42.698;23.124;2022-12-29T10:50:56;118349.16;;;-140.64;83.39
7930;BME280;4010;42.698;23.124;2022-12-29T10:53:27;118349.16;;;-140.64;83.99
7930;BME280;4010;42.698;23.124;2022-12-29T10:55:59;118349.16;;;-140.64;82.85
7930;BME280;4010;42.698;23.124;2022-12-29T10:58:27;118349.16;;;-140.64;84.09
7930;BME280;4010;42.698;23.124;2022-12-29T11:00:55;118349.16;;;-140.64;84.88
7930;BME280;4010;42.698;23.124;2022-12-29T11:03:53;118349.16;;;-140.64;84.69
7930;BME280;4010;42.698;23.124;2022-12-29T11:06:25;118349.16;;;-140.64;83.92
7930;BME280;4010;42.698;23.124;2022-12-29T11:08:56;118349.16;;;-140.64;84.74
7930;BME280;4010;42.698;23.124;2022-12-29T11:11:25;118349.16;;;-140.64;83.95
7930;BME280;4010;42.698;23.124;2022-12-29T11:13:57;118349.16;;;-140.64;84.75
7930;BME280;4010;42.698;23.124;2022-12-29T11:16:29;118349.16;;;-140.64;84.43
7930;BME280;4010;42.698;23.124;2022-12-29T11:18:58;118349.16;;;-140.64;83.73
7930;BME280;4010;42.698;23.124;2022-12-29T11:21:27;118349.16;;;-140.64;84.00
7930;BME280;4010;42.698;23.124;2022-12-29T11:23:58;118349.16;;;-140.64;84.19
7930;BME280;4010;42.698;23.124;2022-12-29T11:26:26;118349.16;;;-140.64;83.86
7930;BME280;4010;42.698;23.124;2022-12-29T11:29:17;118349.16;;;-140.64;84.70
7930;BME280;4010;42.698;23.124;2022-12-29T11:31:48;118349.16;;;-140.64;84.27
7930;BME280;4010;42.698;23.124;2022-12-29T11:34:21;118349.16;;;-140.64;85.36
7930;BME280;4010;42.698;23.124;2022-12-29T11:36:52;118349.16;;;-140.64;85.53
7930;BME280;4010;42.698;23.124;2022-12-29T11:39:32;118349.16;;;-140.64;84.98
7930;BME280;4010;42.698;23.124;2022-12-29T11:42:00;118349.16;;;-140.64;84.93
7930;BME280;4010;42.698;23.124;2022-12-29T11:44:35;118349.16;;;-140.64;83.51
7930;BME280;4010;42.698;23.124;2022-12-29T11:47:03;118349.16;;;-140.64;82.81
7930;BME280;4010;42.698;23.124;2022-12-29T11:49:34;118349.16;;;-140.64;82.91
7930;BME280;4010;42.698;23.124;2022-12-29T11:52:00;118349.16;;;-140.64;82.88
7930;BME280;4010;42.698;23.124;2022-12-29T11:54:30;118349.16;;;-140.64;83.37
7930;BME280;4010;42.698;23.124;2022-12-29T11:57:09;118349.16;;;-140.64;83.48
7930;BME280;4010;42.698;23.124;2022-12-29T11:59:43;118349.16;;;-140.64;81.87
7930;BME280;4010;42.698;23.124;2022-12-29T12:02:26;118349.16;;;-140.64;81.01
7930;BME280;4010;42.698;23.124;2022-12-29T12:05:03;118349.16;;;-140.64;80.76
7930;BME280;4010;42.698;23.124;2022-12-29T12:07:39;118349.16;;;-140.64;81.06
7930;BME280;4010;42.698;23.124;2022-12-29T12:10:15;118349.16;;;-140.64;80.25
7930;BME280;4010;42.698;23.124;2022-12-29T12:12:48;118349.16;;;-140.64;80.00
7930;BME280;4010;42.698;23.124;2022-12-29T12:15:20;118349.16;;;-140.64;78.69
7930;BME280;4010;42.698;23.124;2022-12-29T12:17:51;118349.16;;;-140.64;77.77
7930;BME280;4010;42.698;23.124;2022-12-29T12:20:22;118349.16;;;-140.64;78.39
7930;BME280;4010;42.698;23.124;2022-12-29T12:22:58;118349.16;;;-140.64;78.65
7930;BME280;4010;42.698;23.124;2022-12-29T12:25:31;118349.16;;;-140.64;79.84
7930;BME280;4010;42.698;23.124;2022-12-29T12:28:08;118349.16;;;-140.64;79.88
7930;BME280;4010;42.698;23.124;2022-12-29T12:30:40;118349.16;;;-140.64;80.19
7930;BME280;4010;42.698;23.124;2022-12-29T12:33:15;118349.16;;;-140.64;79.76
7930;BME280;4010;42.698;23.124;2022-12-29T12:35:51;118349.16;;;-140.64;80.24
7930;BME280;4010;42.698;23.124;2022-12-29T12:38:26;118349.16;;;-140.64;80.80
7930;BME280;4010;42.698;23.124;2022-12-29T12:41:08;118349.16;;;-140.64;80.50
7930;BME280;4010;42.698;23.124;2022-12-29T12:43:39;118349.16;;;-140.64;80.15
7930;BME280;4010;42.698;23.124;2022-12-29T12:46:29;118349.16;;;-140.64;80.08
7930;BME280;4010;42.698;23.124;2022-12-29T12:49:29;118349.16;;;-140.64;80.29
7930;BME280;4010;42.698;23.124;2022-12-29T12:52:08;118349.16;;;-140.64;79.81
7930;BME280;4010;42.698;23.124;2022-12-29T12:54:54;118349.16;;;-140.64;79.37
7930;BME280;4010;42.698;23.124;2022-12-29T12:57:40;118349.16;;;-140.64;80.57
7930;BME280;4010;42.698;23.124;2022-12-29T13:00:15;118349.16;;;-140.64;81.83
7930;BME280;4010;42.698;23.124;2022-12-29T13:02:53;118349.16;;;-140.64;82.58